首页
METAR-TAF:

METAR-TAF

机场 :

Crescent City, 加利福尼亚州, 美国

纬度: 41-46-49N, 经度: 124-14-12W, 海拔: 17米

当前天气观测

该预报发布于25分钟前的20:56 UTC
风速9节,风向东南
温度 11°C
湿度 87%
气压 1019 hPa
能見度: 14.5公里
少量云层高于4400英尺
阴天层高于6000英尺
小雨

METAR: KCEC 112056Z AUTO 14009KT 9SM -RA FEW044 OVC060 11/09 A3008 RMK AO2 SLP188 P0005 60011 T01110089 58013

时间: 13:21 (21:21 UTC)

预报

该预报发布于3小时和47分钟前的17:34 UTC
预报有效从11日的 18点(UTC)到 12日的 18点(UTC)
风速10节,风向南转南东
能見度: 10公里
散云层高于3000英尺
阴天层高于5000英尺
从 11日的 2200点(UTC)
风速15节,风向,有时为25节阵风
能見度: 9.7公里
多云层高于2500英尺
阴天层高于3500英尺
小雨, 轻雾
从 12日的 0200点(UTC)
风速13节,风向
能見度: 6.4公里
阴天层高于1500英尺
雨, 轻雾
从 12日的 1200点(UTC)
风速8节,风向
能見度: 9.7公里
散云层高于1500英尺
阴天层高于2500英尺
小阵雨

TAF: KCEC 111734Z 1118/1218 16010KT P6SM SCT030 OVC050 FM112200 17015G25KT 6SM -RA BR BKN025 OVC035 FM120200 17013KT 4SM RA BR OVC015 FM121200 17008KT 6SM -SHRA SCT015 OVC025

超过4000个机场的气象观测和天气预报(METAR&TAF报告)。

可查询的气象台以黄色和红色小点在地图上表示。

将鼠标移到小点上方,可查看气象台名称。

然后点击查看天气观测和预报。

如需切换地图:点击带黑十字的绿色按钮放大地图;点击带横线的绿色按钮缩小地图;或者点击绿色箭头查看邻近地区的地图。


METAR-TAF: